createdAt,value
2022-08-17T00:02:25.517Z,99000.09
2022-08-17T00:05:33.891Z,98998.28
2022-08-17T00:08:45.124Z,99000.09
2022-08-17T00:12:40.798Z,98994.28
2022-08-17T00:15:14.537Z,98993.47
2022-08-17T00:19:01.244Z,98994.72
2022-08-17T00:22:14.750Z,98992.13
2022-08-17T00:25:13.272Z,98996.69
2022-08-17T00:28:17.936Z,98995.88
2022-08-17T00:31:24.578Z,98996.19
2022-08-17T00:34:28.043Z,98998.00
2022-08-17T00:37:36.612Z,98999.59
2022-08-17T00:40:44.421Z,99005.00
2022-08-17T00:43:50.601Z,98996.78
2022-08-17T00:46:54.018Z,98995.75
2022-08-17T00:49:57.331Z,98996.81
2022-08-17T00:53:02.614Z,99003.75
2022-08-17T00:56:09.367Z,98998.16
2022-08-17T00:59:15.514Z,99004.75
2022-08-17T01:02:20.094Z,99009.41
2022-08-17T01:05:27.884Z,98994.31
2022-08-17T01:08:34.520Z,99001.03
2022-08-17T01:11:40.660Z,99005.28
2022-08-17T01:14:44.505Z,99001.50
2022-08-17T01:17:48.276Z,99002.63
2022-08-17T01:20:54.647Z,99004.22
2022-08-17T01:23:59.650Z,99010.19
2022-08-17T01:27:04.179Z,99000.88
2022-08-17T01:30:58.255Z,98995.41
2022-08-17T01:33:38.495Z,98999.97
2022-08-17T01:36:44.750Z,98998.94
2022-08-17T01:39:53.800Z,98990.63
2022-08-17T01:43:01.195Z,98997.81
2022-08-17T01:46:04.702Z,98993.03
2022-08-17T01:49:09.936Z,98982.81
2022-08-17T01:52:14.085Z,98982.72
2022-08-17T01:55:27.350Z,98981.66
2022-08-17T01:58:30.879Z,98988.09
2022-08-17T02:01:35.836Z,98976.84
2022-08-17T02:04:39.298Z,98975.69
2022-08-17T02:07:59.752Z,98973.72
2022-08-17T02:11:11.281Z,98976.31
2022-08-17T02:14:15.473Z,98974.06
2022-08-17T02:17:18.872Z,98969.75
2022-08-17T02:20:41.529Z,98978.34
2022-08-17T02:23:49.829Z,98974.75
2022-08-17T02:26:54.550Z,98972.72
2022-08-17T02:29:58.037Z,98974.16
2022-08-17T02:33:04.217Z,98982.19
2022-08-17T02:36:10.500Z,98980.03
2022-08-17T02:39:14.307Z,98968.00
2022-08-17T02:42:19.089Z,98970.63
2022-08-17T02:45:25.468Z,98978.41
2022-08-17T02:48:31.172Z,98980.03
2022-08-17T02:51:35.650Z,98977.78
2022-08-17T02:54:42.062Z,98978.72
2022-08-17T02:57:47.614Z,98974.59
2022-08-17T03:00:50.953Z,98979.06
2022-08-17T03:03:54.615Z,98976.78
2022-08-17T03:06:57.932Z,98989.28
2022-08-17T03:10:01.311Z,98986.50
2022-08-17T03:13:06.482Z,98994.25
2022-08-17T03:16:10.020Z,98985.56
2022-08-17T03:19:13.439Z,98998.63
2022-08-17T03:22:35.614Z,98999.16
2022-08-17T03:25:44.187Z,98994.28
2022-08-17T03:28:48.990Z,98983.69
2022-08-17T03:31:52.494Z,98996.22
2022-08-17T03:34:59.727Z,98998.75
2022-08-17T03:38:03.777Z,99002.13
2022-08-17T03:41:07.951Z,99004.22
2022-08-17T03:44:12.651Z,99003.66
2022-08-17T03:47:33.481Z,99006.19
2022-08-17T03:50:54.204Z,99010.38
2022-08-17T03:54:18.011Z,99015.09
2022-08-17T03:57:21.648Z,99021.78
2022-08-17T04:00:27.732Z,99019.47
2022-08-17T04:03:31.313Z,99026.44
2022-08-17T04:06:35.020Z,99030.22
2022-08-17T04:09:38.343Z,99039.69
2022-08-17T04:12:47.049Z,99042.13
2022-08-17T04:15:52.005Z,99037.72
2022-08-17T04:18:55.484Z,99042.91
2022-08-17T04:22:00.083Z,99047.66
2022-08-17T04:25:07.694Z,99049.59
2022-08-17T04:28:16.195Z,99055.31
2022-08-17T04:31:21.392Z,99054.41
2022-08-17T04:34:25.327Z,99050.81
2022-08-17T04:37:28.763Z,99060.53
2022-08-17T04:40:49.655Z,99057.84
2022-08-17T04:43:56.144Z,99054.41
2022-08-17T04:47:00.868Z,99060.94
2022-08-17T04:50:04.582Z,99056.97
2022-08-17T04:53:07.919Z,99051.09
2022-08-17T04:56:16.916Z,99055.91
2022-08-17T04:59:23.284Z,99054.56
2022-08-17T05:02:28.054Z,99058.31
2022-08-17T05:05:34.280Z,99064.03
2022-08-17T05:08:37.649Z,99061.00
2022-08-17T05:11:44.952Z,99070.94
2022-08-17T05:14:48.489Z,99069.66
2022-08-17T05:17:53.161Z,99075.56
2022-08-17T05:20:56.698Z,99080.13
2022-08-17T05:24:01.017Z,99078.25
2022-08-17T05:27:09.329Z,99069.91
2022-08-17T05:30:14.181Z,99074.22
2022-08-17T05:33:21.352Z,99070.47
2022-08-17T05:36:42.737Z,99079.56
2022-08-17T05:39:47.660Z,99077.41
2022-08-17T05:42:51.830Z,99077.94
2022-08-17T05:46:02.807Z,99072.59
2022-08-17T05:49:09.144Z,99079.25
2022-08-17T05:52:25.681Z,99084.38
2022-08-17T05:55:39.914Z,99077.13
2022-08-17T05:58:54.228Z,99077.28
2022-08-17T06:02:06.943Z,99082.00
2022-08-17T06:05:34.380Z,99086.84
2022-08-17T06:08:51.550Z,99089.63
2022-08-17T06:12:00.218Z,99093.84
2022-08-17T06:15:19.550Z,99091.94
2022-08-17T06:18:27.764Z,99089.53
2022-08-17T06:21:37.099Z,99089.16
2022-08-17T06:24:44.453Z,99092.53
2022-08-17T06:27:53.707Z,99094.31
2022-08-17T06:31:01.470Z,99099.56
2022-08-17T06:34:09.843Z,99094.59
2022-08-17T06:37:32.417Z,99096.63
2022-08-17T06:41:00.477Z,99095.41
2022-08-17T06:44:43.152Z,99102.31
2022-08-17T06:47:54.011Z,99096.72
2022-08-17T06:51:02.073Z,99092.13
2022-08-17T06:54:14.777Z,99094.31
2022-08-17T06:57:23.720Z,99092.75
2022-08-17T07:00:33.689Z,99085.63
2022-08-17T07:03:47.748Z,99089.38
2022-08-17T07:06:53.767Z,99081.84
2022-08-17T07:10:02.504Z,99084.16
2022-08-17T07:13:29.605Z,99083.75
2022-08-17T07:16:45.814Z,99081.78
2022-08-17T07:19:51.268Z,99077.47
2022-08-17T07:23:05.767Z,99081.34
2022-08-17T07:26:13.418Z,99086.19
2022-08-17T07:29:20.051Z,99089.53
2022-08-17T07:32:27.452Z,99080.69
2022-08-17T07:35:40.752Z,99090.91
2022-08-17T07:38:58.002Z,99089.94
2022-08-17T07:42:06.406Z,99087.38
2022-08-17T07:45:31.332Z,99093.38
2022-08-17T07:48:37.399Z,99083.16
2022-08-17T07:51:55.481Z,99081.09
2022-08-17T07:55:00.566Z,99084.06
2022-08-17T07:58:05.752Z,99079.13
2022-08-17T08:01:15.657Z,99074.03
2022-08-17T08:04:59.037Z,99078.28
2022-08-17T08:07:57.153Z,99072.97
2022-08-17T08:11:08.110Z,99074.75
2022-08-17T08:14:28.439Z,99072.09
2022-08-17T08:17:35.913Z,99074.72
2022-08-17T08:20:53.494Z,99068.97
2022-08-17T08:24:18.404Z,99072.09
2022-08-17T08:27:32.183Z,99074.28
2022-08-17T08:30:46.771Z,99054.91
2022-08-17T08:34:01.152Z,99056.78
2022-08-17T08:37:20.670Z,99063.06
2022-08-17T08:40:48.596Z,99057.16
2022-08-17T08:44:06.165Z,99049.25
2022-08-17T08:47:20.770Z,99050.09
2022-08-17T08:50:37.840Z,99049.81
2022-08-17T08:53:52.069Z,99047.81
2022-08-17T09:00:35.928Z,99038.16
2022-08-17T09:03:55.002Z,99045.56
2022-08-17T09:07:15.781Z,99040.47
2022-08-17T09:10:26.080Z,99034.38
2022-08-17T09:13:38.111Z,99037.09
2022-08-17T09:16:50.304Z,99032.94
2022-08-17T09:20:02.197Z,99025.97
2022-08-17T09:23:11.927Z,99015.56
2022-08-17T09:26:22.989Z,99018.09
2022-08-17T09:29:30.075Z,99024.81
2022-08-17T09:32:40.561Z,99023.69
2022-08-17T09:35:53.571Z,99022.94
2022-08-17T09:39:03.495Z,99019.78
2022-08-17T09:42:14.933Z,99025.34
2022-08-17T09:45:29.237Z,99021.84
2022-08-17T09:48:38.926Z,99012.41
2022-08-17T09:51:49.122Z,99005.66
2022-08-17T09:54:55.945Z,98999.94
2022-08-17T09:58:06.217Z,99007.44
2022-08-17T10:01:20.487Z,99005.75
2022-08-17T10:04:46.969Z,98997.28
2022-08-17T10:07:58.196Z,99006.81
2022-08-17T10:11:13.669Z,99009.84
2022-08-17T10:14:36.227Z,98999.94
2022-08-17T10:17:54.106Z,98986.31
2022-08-17T10:21:19.849Z,99001.50
2022-08-17T10:25:20.947Z,98990.59
2022-08-17T10:28:19.979Z,98987.75
2022-08-17T10:31:36.464Z,98995.06
2022-08-17T10:35:03.901Z,98980.50
2022-08-17T10:38:46.205Z,98972.88
2022-08-17T10:41:55.381Z,98983.41
2022-08-17T10:45:02.893Z,98978.16
2022-08-17T10:48:29.017Z,98968.38
2022-08-17T10:51:38.505Z,98974.66
2022-08-17T10:54:49.442Z,98975.63
2022-08-17T10:58:21.106Z,98977.28
2022-08-17T11:02:05.567Z,98967.84
2022-08-17T11:05:52.338Z,98971.63
2022-08-17T11:09:21.164Z,98956.34
2022-08-17T11:12:38.778Z,98953.75
2022-08-17T11:15:59.947Z,98955.22
2022-08-17T11:19:34.981Z,98950.44
2022-08-17T11:23:20.049Z,98946.00
2022-08-17T11:26:27.123Z,98947.31
2022-08-17T11:29:36.865Z,98944.94
2022-08-17T11:32:48.669Z,98930.78
2022-08-17T11:36:06.506Z,98936.47
2022-08-17T11:39:30.058Z,98936.25
2022-08-17T11:42:49.106Z,98933.97
2022-08-17T11:46:16.143Z,98924.00
2022-08-17T11:49:45.096Z,98923.03
2022-08-17T11:52:50.226Z,98908.41
2022-08-17T11:56:05.244Z,98917.94
2022-08-17T11:59:46.115Z,98916.75
2022-08-17T12:02:49.579Z,98914.72
2022-08-17T12:06:04.043Z,98913.47
2022-08-17T12:09:12.118Z,98913.59
2022-08-17T12:12:18.970Z,98899.84
2022-08-17T12:15:30.208Z,98889.66
2022-08-17T12:18:38.475Z,98885.22
2022-08-17T12:21:53.947Z,98907.56
2022-08-17T12:25:05.004Z,98892.28
2022-08-17T12:28:23.460Z,98896.31
2022-08-17T12:31:30.088Z,98890.88
2022-08-17T12:34:38.465Z,98892.50
2022-08-17T12:37:48.291Z,98896.00
2022-08-17T12:40:58.095Z,98886.66
2022-08-17T12:44:04.362Z,98884.91
2022-08-17T12:47:21.018Z,98881.75
2022-08-17T12:50:28.601Z,98878.78
2022-08-17T12:53:40.063Z,98884.47
2022-08-17T12:56:47.507Z,98882.41
2022-08-17T12:59:55.945Z,98885.59
2022-08-17T13:03:02.514Z,98875.25
2022-08-17T13:06:08.800Z,98885.13
2022-08-17T13:09:15.401Z,98886.03
2022-08-17T13:12:28.119Z,98879.34
2022-08-17T13:15:37.087Z,98873.28
2022-08-17T13:18:43.643Z,98877.41
2022-08-17T13:21:49.290Z,98882.69
2022-08-17T13:24:56.435Z,98882.75
2022-08-17T13:28:00.443Z,98879.69
2022-08-17T13:31:24.322Z,98881.28
2022-08-17T13:34:49.614Z,98874.81
2022-08-17T13:38:03.161Z,98872.44
2022-08-17T13:41:08.119Z,98876.84
2022-08-17T13:44:34.899Z,98878.13
2022-08-17T13:47:38.277Z,98881.66
2022-08-17T13:50:45.158Z,98872.66
2022-08-17T13:53:58.351Z,98871.44
2022-08-17T13:57:06.698Z,98876.13
2022-08-17T14:00:17.568Z,98873.59
2022-08-17T14:03:21.895Z,98876.53
2022-08-17T14:06:52.354Z,98882.47
2022-08-17T14:09:54.525Z,98876.50
2022-08-17T14:12:59.683Z,98871.84
2022-08-17T14:16:03.104Z,98880.59
2022-08-17T14:19:06.389Z,98874.72
2022-08-17T14:22:16.186Z,98870.16
2022-08-17T14:25:23.054Z,98871.44
2022-08-17T14:28:27.901Z,98869.03
2022-08-17T14:31:36.826Z,98863.78
2022-08-17T14:34:40.814Z,98866.78
2022-08-17T14:37:45.757Z,98873.50
2022-08-17T14:40:50.622Z,98876.31
2022-08-17T14:43:55.358Z,98871.16
2022-08-17T14:46:58.768Z,98878.44
2022-08-17T14:50:02.911Z,98873.66
2022-08-17T14:53:07.771Z,98870.06
2022-08-17T14:56:11.144Z,98871.06
2022-08-17T14:59:16.313Z,98875.06
2022-08-17T15:02:19.876Z,98871.03
2022-08-17T15:05:24.681Z,98874.31
2022-08-17T15:08:30.057Z,98877.78
2022-08-17T15:11:33.451Z,98870.84
2022-08-17T15:14:38.185Z,98873.66
2022-08-17T15:17:43.915Z,98868.91
2022-08-17T15:20:50.327Z,98867.41
2022-08-17T15:23:53.658Z,98870.59
2022-08-17T15:26:57.141Z,98872.84
2022-08-17T15:30:01.940Z,98869.75
2022-08-17T15:33:05.515Z,98879.22
2022-08-17T15:36:09.816Z,98870.75
2022-08-17T15:39:13.232Z,98868.75
2022-08-17T15:42:18.023Z,98877.81
2022-08-17T15:45:28.427Z,98873.16
2022-08-17T15:48:43.902Z,98876.81
2022-08-17T15:51:47.230Z,98880.75
2022-08-17T15:54:52.290Z,98882.78
2022-08-17T15:57:55.638Z,98876.72
2022-08-17T16:01:14.738Z,98875.75
2022-08-17T16:04:30.018Z,98878.47
2022-08-17T16:07:33.977Z,98882.72
2022-08-17T16:10:37.853Z,98881.44
2022-08-17T16:13:41.728Z,98886.13
2022-08-17T16:16:52.158Z,98887.72
2022-08-17T16:19:56.092Z,98890.44
2022-08-17T16:22:59.454Z,98893.00
2022-08-17T16:26:02.810Z,98884.84
2022-08-17T16:29:08.318Z,98894.13
2022-08-17T16:32:16.088Z,98896.00
2022-08-17T16:35:22.145Z,98892.97
2022-08-17T16:38:26.124Z,98884.81
2022-08-17T16:41:45.174Z,98895.09
2022-08-17T16:44:48.988Z,98895.44
2022-08-17T16:47:54.812Z,98895.31
2022-08-17T16:51:03.032Z,98898.59
2022-08-17T16:54:08.761Z,98901.31
2022-08-17T16:57:12.821Z,98895.31
2022-08-17T17:00:19.412Z,98897.22
2022-08-17T17:03:28.281Z,98915.53
2022-08-17T17:06:41.621Z,98912.47
2022-08-17T17:09:48.804Z,98922.72
2022-08-17T17:13:01.466Z,98922.66
2022-08-17T17:16:18.258Z,98933.47
2022-08-17T17:19:34.453Z,98939.53
2022-08-17T17:22:47.194Z,98943.09
2022-08-17T17:25:59.332Z,98948.50
2022-08-17T17:29:19.599Z,98950.69
2022-08-17T17:32:37.967Z,98956.16
2022-08-17T17:35:51.531Z,98958.72
2022-08-17T17:39:00.491Z,98957.28
2022-08-17T17:42:07.781Z,98965.81
2022-08-17T17:45:19.980Z,98968.06
2022-08-17T17:48:23.780Z,98971.91
2022-08-17T17:52:06.662Z,98971.03
2022-08-17T17:55:13.390Z,98977.50
2022-08-17T17:58:29.181Z,98989.44
2022-08-17T18:01:46.261Z,98987.72
2022-08-17T18:05:01.236Z,98995.34
2022-08-17T18:08:16.611Z,98999.50
2022-08-17T18:11:37.137Z,99002.34
2022-08-17T18:14:56.152Z,99007.16
2022-08-17T18:18:38.086Z,99010.16
2022-08-17T18:21:45.950Z,99022.13
2022-08-17T18:24:56.553Z,99020.84
2022-08-17T18:27:59.914Z,99023.41
2022-08-17T18:31:10.192Z,99028.81
2022-08-17T18:34:45.812Z,99034.19
2022-08-17T18:37:51.296Z,99029.75
2022-08-17T18:41:03.625Z,99039.00
2022-08-17T18:44:22.411Z,99043.00
2022-08-17T18:47:27.993Z,99045.31
2022-08-17T18:50:39.722Z,99046.00
2022-08-17T18:53:43.147Z,99039.97
2022-08-17T18:56:54.862Z,99048.06
2022-08-17T18:59:58.276Z,99056.06
2022-08-17T19:03:04.245Z,99058.41
2022-08-17T19:06:23.895Z,99056.78
2022-08-17T19:09:34.321Z,99063.09
2022-08-17T19:12:45.301Z,99073.03
2022-08-17T19:16:12.010Z,99069.03
2022-08-17T19:19:23.418Z,99070.34
2022-08-17T19:22:31.228Z,99073.72
2022-08-17T19:25:39.474Z,99071.41
2022-08-17T19:28:48.668Z,99080.69
2022-08-17T19:31:55.320Z,99075.78
2022-08-17T19:35:00.650Z,99080.50
2022-08-17T19:38:12.943Z,99083.22
2022-08-17T19:41:23.924Z,99075.50
2022-08-17T19:44:50.387Z,99084.09
2022-08-17T19:48:03.038Z,99078.78
2022-08-17T19:51:12.558Z,99078.19
2022-08-17T19:54:22.838Z,99076.56
2022-08-17T19:57:34.697Z,99075.53
2022-08-17T20:00:46.985Z,99085.00
2022-08-17T20:03:59.067Z,99087.44
2022-08-17T20:07:07.485Z,99091.47
2022-08-17T20:10:20.687Z,99082.94
2022-08-17T20:13:33.358Z,99079.13
2022-08-17T20:16:38.602Z,99080.38
2022-08-17T20:19:52.189Z,99081.00
2022-08-17T20:23:03.776Z,99083.94
2022-08-17T20:26:20.043Z,99088.63
2022-08-17T20:29:37.472Z,99088.06
2022-08-17T20:32:55.390Z,99096.63
2022-08-17T20:36:06.043Z,99096.59
2022-08-17T20:39:32.115Z,99104.31
2022-08-17T20:42:39.097Z,99103.31
2022-08-17T20:46:16.919Z,99107.69
2022-08-17T20:49:28.272Z,99100.97
2022-08-17T20:52:52.769Z,99106.88
2022-08-17T20:55:57.122Z,99107.75
2022-08-17T20:59:01.345Z,99106.16
2022-08-17T21:02:18.519Z,99106.41
2022-08-17T21:05:34.602Z,99097.53
2022-08-17T21:08:45.711Z,99107.53
2022-08-17T21:12:04.210Z,99099.41
2022-08-17T21:15:13.041Z,99098.91
2022-08-17T21:18:27.480Z,99107.56
2022-08-17T21:21:47.191Z,99106.78
2022-08-17T21:24:59.932Z,99106.97
2022-08-17T21:28:12.975Z,99110.72
2022-08-17T21:31:33.202Z,99106.25
2022-08-17T21:34:39.292Z,99106.84
2022-08-17T21:37:48.074Z,99110.81
2022-08-17T21:40:53.436Z,99111.41
2022-08-17T21:44:05.221Z,99114.13
2022-08-17T21:47:19.541Z,99112.81
2022-08-17T21:50:25.686Z,99112.00
2022-08-17T21:53:39.985Z,99121.97
2022-08-17T21:56:48.317Z,99114.47
2022-08-17T21:59:57.650Z,99105.59
2022-08-17T22:03:04.176Z,99114.22
2022-08-17T22:06:22.455Z,99120.38
2022-08-17T22:09:29.724Z,99115.25
2022-08-17T22:12:35.095Z,99120.34
2022-08-17T22:15:39.940Z,99109.59
2022-08-17T22:18:44.783Z,99117.16
2022-08-17T22:21:48.164Z,99110.69
2022-08-17T22:24:57.575Z,99121.72
2022-08-17T22:28:02.991Z,99117.66
2022-08-17T22:31:09.077Z,99114.72
2022-08-17T22:34:15.891Z,99113.41
2022-08-17T22:37:27.492Z,99109.63
2022-08-17T22:40:35.226Z,99107.72
2022-08-17T22:43:43.121Z,99108.56
2022-08-17T22:46:56.640Z,99098.63
2022-08-17T22:50:03.198Z,99110.19
2022-08-17T22:53:34.125Z,99109.63
2022-08-17T22:56:57.261Z,99107.22
2022-08-17T23:00:03.029Z,99108.00
2022-08-17T23:03:15.371Z,99103.75
2022-08-17T23:06:18.786Z,99109.09
2022-08-17T23:09:22.307Z,99105.88
2022-08-17T23:12:28.095Z,99102.91
2022-08-17T23:15:33.568Z,99110.94
2022-08-17T23:18:37.476Z,99109.06
2022-08-17T23:21:41.166Z,99099.16
2022-08-17T23:24:49.086Z,99099.94
2022-08-17T23:27:54.596Z,99104.78
2022-08-17T23:30:58.312Z,99097.28
2022-08-17T23:34:02.231Z,99098.09
2022-08-17T23:37:05.587Z,99099.97
2022-08-17T23:40:10.382Z,99095.66
2022-08-17T23:43:23.732Z,99103.72
2022-08-17T23:46:28.289Z,99098.88
2022-08-17T23:49:32.461Z,99111.22
2022-08-17T23:52:37.867Z,99103.72
2022-08-17T23:55:41.207Z,99103.19
2022-08-17T23:58:46.588Z,99102.09
